createdAt,value
2022-09-26T00:01:30.634Z,100503.41
2022-09-26T00:04:02.833Z,100503.22
2022-09-26T00:06:29.681Z,100495.09
2022-09-26T00:08:56.740Z,100491.63
2022-09-26T00:11:31.756Z,100489.16
2022-09-26T00:14:01.367Z,100498.94
2022-09-26T00:16:28.451Z,100491.81
2022-09-26T00:18:56.875Z,100480.38
2022-09-26T00:21:24.654Z,100482.84
2022-09-26T00:23:51.594Z,100483.47
2022-09-26T00:26:20.725Z,100478.56
2022-09-26T00:28:47.485Z,100477.38
2022-09-26T00:31:24.537Z,100472.88
2022-09-26T00:33:51.223Z,100479.19
2022-09-26T00:36:18.338Z,100473.81
2022-09-26T00:38:45.496Z,100474.84
2022-09-26T00:41:12.489Z,100474.00
2022-09-26T00:43:51.454Z,100469.34
2022-09-26T00:46:24.129Z,100461.41
2022-09-26T00:49:18.668Z,100470.97
2022-09-26T00:51:50.986Z,100475.00
2022-09-26T00:54:18.751Z,100476.81
2022-09-26T00:56:51.160Z,100478.31
2022-09-26T00:59:51.986Z,100477.03
2022-09-26T01:02:19.197Z,100473.63
2022-09-26T01:04:47.627Z,100462.78
2022-09-26T01:07:18.511Z,100471.34
2022-09-26T01:09:45.230Z,100463.78
2022-09-26T01:12:12.364Z,100463.78
2022-09-26T01:14:40.782Z,100455.19
2022-09-26T01:17:08.511Z,100457.47
2022-09-26T01:19:53.737Z,100453.56
2022-09-26T01:22:23.316Z,100445.25
2022-09-26T01:25:04.940Z,100443.31
2022-09-26T01:27:43.577Z,100446.53
2022-09-26T01:30:18.075Z,100444.34
2022-09-26T01:32:50.910Z,100447.44
2022-09-26T01:35:39.149Z,100439.66
2022-09-26T01:38:30.405Z,100438.03
2022-09-26T01:41:34.116Z,100438.84
2022-09-26T01:44:35.309Z,100449.28
2022-09-26T01:47:13.732Z,100449.09
2022-09-26T01:49:40.337Z,100447.59
2022-09-26T01:52:19.567Z,100444.59
2022-09-26T01:55:02.110Z,100446.69
2022-09-26T01:57:33.354Z,100455.63
2022-09-26T02:00:02.698Z,100456.81
2022-09-26T02:02:33.351Z,100454.66
2022-09-26T02:05:04.925Z,100450.63
2022-09-26T02:07:40.265Z,100445.50
2022-09-26T02:10:20.957Z,100444.31
2022-09-26T02:12:51.167Z,100436.53
2022-09-26T02:15:20.051Z,100438.19
2022-09-26T02:17:54.896Z,100436.19
2022-09-26T02:20:32.368Z,100429.03
2022-09-26T02:22:59.553Z,100425.41
2022-09-26T02:25:28.341Z,100432.53
2022-09-26T02:27:55.193Z,100427.59
2022-09-26T02:30:21.921Z,100422.69
2022-09-26T02:32:49.199Z,100420.03
2022-09-26T02:35:34.868Z,100419.75
2022-09-26T02:38:02.724Z,100422.59
2022-09-26T02:40:38.434Z,100412.19
2022-09-26T02:43:29.762Z,100407.75
2022-09-26T02:46:15.145Z,100409.22
2022-09-26T02:49:07.556Z,100410.59
2022-09-26T02:52:08.945Z,100409.34
2022-09-26T02:54:57.900Z,100409.34
2022-09-26T02:57:51.778Z,100418.94
2022-09-26T03:00:22.338Z,100418.94
2022-09-26T03:03:06.045Z,100426.63
2022-09-26T03:05:33.387Z,100417.84
2022-09-26T03:08:10.076Z,100418.84
2022-09-26T03:10:37.671Z,100415.56
2022-09-26T03:13:09.083Z,100415.94
2022-09-26T03:15:37.779Z,100416.13
2022-09-26T03:18:07.396Z,100409.19
2022-09-26T03:20:34.061Z,100402.06
2022-09-26T03:23:02.475Z,100399.41
2022-09-26T03:25:29.294Z,100396.94
2022-09-26T03:27:56.125Z,100398.78
2022-09-26T03:30:23.883Z,100388.19
2022-09-26T03:32:50.509Z,100387.00
2022-09-26T03:35:17.307Z,100380.50
2022-09-26T03:37:43.914Z,100375.47
2022-09-26T03:40:12.682Z,100367.53
2022-09-26T03:42:39.351Z,100374.63
2022-09-26T03:45:10.432Z,100366.69
2022-09-26T03:47:38.547Z,100371.19
2022-09-26T03:50:09.119Z,100367.28
2022-09-26T03:52:36.486Z,100369.09
2022-09-26T03:55:03.869Z,100364.63
2022-09-26T03:57:30.437Z,100360.34
2022-09-26T03:59:57.241Z,100365.16
2022-09-26T04:02:23.910Z,100357.41
2022-09-26T04:04:50.609Z,100350.09
2022-09-26T04:07:17.170Z,100350.72
2022-09-26T04:09:43.754Z,100350.94
2022-09-26T04:12:10.341Z,100348.28
2022-09-26T04:14:36.947Z,100344.63
2022-09-26T04:17:03.513Z,100351.13
2022-09-26T04:19:30.179Z,100356.78
2022-09-26T04:21:57.013Z,100345.81
2022-09-26T04:24:23.624Z,100352.41
2022-09-26T04:26:50.273Z,100348.06
2022-09-26T04:29:17.127Z,100353.59
2022-09-26T04:31:43.996Z,100346.63
2022-09-26T04:34:11.587Z,100348.47
2022-09-26T04:36:38.729Z,100349.75
2022-09-26T04:39:05.664Z,100356.31
2022-09-26T04:41:32.438Z,100353.44
2022-09-26T04:44:00.365Z,100354.47
2022-09-26T04:46:30.699Z,100344.22
2022-09-26T04:49:00.262Z,100347.72
2022-09-26T04:51:30.579Z,100352.66
2022-09-26T04:53:57.418Z,100350.00
2022-09-26T04:56:27.195Z,100344.22
2022-09-26T04:58:56.595Z,100335.66
2022-09-26T05:01:24.667Z,100336.69
2022-09-26T05:03:51.628Z,100332.13
2022-09-26T05:06:18.725Z,100337.22
2022-09-26T05:08:48.558Z,100329.94
2022-09-26T05:11:17.089Z,100335.22
2022-09-26T05:13:44.875Z,100330.47
2022-09-26T05:16:12.468Z,100324.56
2022-09-26T05:18:39.528Z,100332.69
2022-09-26T05:21:07.543Z,100326.56
2022-09-26T05:23:53.463Z,100331.84
2022-09-26T05:26:20.151Z,100329.88
2022-09-26T05:28:52.504Z,100335.78
2022-09-26T05:31:19.259Z,100337.22
2022-09-26T05:33:46.572Z,100334.41
2022-09-26T05:36:13.923Z,100344.63
2022-09-26T05:38:40.762Z,100343.78
2022-09-26T05:41:07.566Z,100340.13
2022-09-26T05:43:35.094Z,100335.84
2022-09-26T05:46:06.360Z,100332.59
2022-09-26T05:48:34.220Z,100331.94
2022-09-26T05:51:14.148Z,100337.41
2022-09-26T05:53:42.026Z,100335.59
2022-09-26T05:56:11.236Z,100333.78
2022-09-26T05:58:41.305Z,100328.84
2022-09-26T06:01:16.232Z,100327.03
2022-09-26T06:03:44.335Z,100333.13
2022-09-26T06:06:15.572Z,100331.69
2022-09-26T06:08:42.581Z,100334.16
2022-09-26T06:11:14.636Z,100328.03
2022-09-26T06:13:45.796Z,100327.66
2022-09-26T06:16:20.586Z,100329.88
2022-09-26T06:18:49.167Z,100328.66
2022-09-26T06:21:17.245Z,100327.84
2022-09-26T06:23:44.141Z,100331.84
2022-09-26T06:26:15.783Z,100330.84
2022-09-26T06:28:42.377Z,100330.03
2022-09-26T06:31:17.236Z,100329.41
2022-09-26T06:33:44.316Z,100328.59
2022-09-26T06:36:11.899Z,100327.75
2022-09-26T06:38:38.918Z,100328.59
2022-09-26T06:41:07.441Z,100325.28
2022-09-26T06:43:34.628Z,100321.66
2022-09-26T06:46:01.274Z,100325.13
2022-09-26T06:48:27.954Z,100321.66
2022-09-26T06:50:57.097Z,100324.94
2022-09-26T06:53:23.769Z,100320.00
2022-09-26T06:55:50.362Z,100326.13
2022-09-26T06:58:17.162Z,100324.50
2022-09-26T07:00:44.244Z,100317.16
2022-09-26T07:03:12.063Z,100326.31
2022-09-26T07:05:39.806Z,100322.47
2022-09-26T07:08:06.755Z,100322.66
2022-09-26T07:10:35.253Z,100319.47
2022-09-26T07:13:04.555Z,100325.75
2022-09-26T07:15:33.900Z,100315.34
2022-09-26T07:18:05.029Z,100317.81
2022-09-26T07:20:34.844Z,100310.69
2022-09-26T07:23:10.157Z,100310.31
2022-09-26T07:25:39.458Z,100309.47
2022-09-26T07:28:07.323Z,100311.31
2022-09-26T07:30:34.345Z,100299.28
2022-09-26T07:33:05.221Z,100293.53
2022-09-26T07:35:35.953Z,100299.66
2022-09-26T07:38:03.519Z,100291.13
2022-09-26T07:40:30.273Z,100292.41
2022-09-26T07:43:18.619Z,100287.94
2022-09-26T07:46:05.141Z,100291.59
2022-09-26T07:48:50.150Z,100289.56
2022-09-26T07:51:16.885Z,100285.72
2022-09-26T07:53:43.491Z,100287.56
2022-09-26T07:56:10.756Z,100286.56
2022-09-26T07:58:39.776Z,100292.28
2022-09-26T08:01:11.654Z,100290.66
2022-09-26T08:03:39.727Z,100290.09
2022-09-26T08:06:07.156Z,100291.16
2022-09-26T08:08:33.847Z,100279.34
2022-09-26T08:11:04.044Z,100278.38
2022-09-26T08:13:31.975Z,100276.16
2022-09-26T08:16:06.020Z,100273.31
2022-09-26T08:18:33.517Z,100270.47
2022-09-26T08:21:03.014Z,100267.63
2022-09-26T08:23:29.611Z,100272.53
2022-09-26T08:25:56.254Z,100275.84
2022-09-26T08:28:24.095Z,100267.50
2022-09-26T08:30:50.815Z,100281.59
2022-09-26T08:33:19.090Z,100279.97
2022-09-26T08:35:45.719Z,100284.53
2022-09-26T08:38:12.598Z,100278.31
2022-09-26T08:41:03.532Z,100268.97
2022-09-26T08:43:39.946Z,100273.19
2022-09-26T08:46:37.545Z,100266.75
2022-09-26T08:49:26.121Z,100261.94
2022-09-26T08:51:54.852Z,100254.91
2022-09-26T08:54:27.805Z,100259.81
2022-09-26T08:56:57.701Z,100261.72
2022-09-26T08:59:46.101Z,100258.22
2022-09-26T09:02:27.892Z,100257.09
2022-09-26T09:05:27.320Z,100256.16
2022-09-26T09:07:55.741Z,100258.22
2022-09-26T09:10:36.494Z,100252.31
2022-09-26T09:13:09.222Z,100254.31
2022-09-26T09:15:54.649Z,100254.19
2022-09-26T09:18:26.711Z,100244.03
2022-09-26T09:21:17.742Z,100236.56
2022-09-26T09:23:50.262Z,100232.50
2022-09-26T09:29:11.328Z,100238.88
2022-09-26T09:31:41.118Z,100230.53
2022-09-26T09:34:16.127Z,100240.75
2022-09-26T09:36:49.698Z,100237.31
2022-09-26T09:39:33.358Z,100225.50
2022-09-26T09:42:23.185Z,100229.41
2022-09-26T09:44:58.223Z,100230.66
2022-09-26T09:47:27.377Z,100218.09
2022-09-26T09:49:54.410Z,100220.13
2022-09-26T09:52:39.782Z,100209.53
2022-09-26T09:55:31.069Z,100212.22
2022-09-26T09:58:02.862Z,100209.81
2022-09-26T10:00:29.805Z,100208.41
2022-09-26T10:03:02.514Z,100208.84
2022-09-26T10:05:36.815Z,100205.16
2022-09-26T10:08:04.861Z,100204.19
2022-09-26T10:10:59.970Z,100205.81
2022-09-26T10:13:27.089Z,100198.91
2022-09-26T10:16:05.734Z,100194.81
2022-09-26T10:18:33.719Z,100182.97
2022-09-26T10:21:06.933Z,100181.38
2022-09-26T10:23:37.121Z,100182.41
2022-09-26T10:26:06.347Z,100180.13
2022-09-26T10:28:37.656Z,100173.75
2022-09-26T10:31:08.458Z,100174.56
2022-09-26T10:33:37.338Z,100173.50
2022-09-26T10:36:32.631Z,100175.31
2022-09-26T10:39:22.704Z,100171.44
2022-09-26T10:41:49.599Z,100172.13
2022-09-26T10:44:27.865Z,100175.03
2022-09-26T10:46:58.181Z,100167.47
2022-09-26T10:49:31.041Z,100164.81
2022-09-26T10:52:05.448Z,100161.19
2022-09-26T10:54:42.488Z,100152.44
2022-09-26T10:57:18.684Z,100145.94
2022-09-26T10:59:47.154Z,100140.47
2022-09-26T11:02:20.135Z,100139.03
2022-09-26T11:05:05.671Z,100134.78
2022-09-26T11:07:36.054Z,100131.09
2022-09-26T11:10:07.051Z,100129.88
2022-09-26T11:12:39.757Z,100137.63
2022-09-26T11:15:13.894Z,100130.88
2022-09-26T11:17:48.585Z,100125.97
2022-09-26T11:20:30.243Z,100127.19
2022-09-26T11:23:16.860Z,100126.53
2022-09-26T11:25:58.085Z,100125.91
2022-09-26T11:28:32.636Z,100126.72
2022-09-26T11:31:03.100Z,100116.31
2022-09-26T11:33:30.298Z,100119.34
2022-09-26T11:36:09.067Z,100117.91
2022-09-26T11:38:41.429Z,100115.66
2022-09-26T11:41:36.677Z,100107.88
2022-09-26T11:44:20.612Z,100116.06
2022-09-26T11:47:01.424Z,100113.81
2022-09-26T11:49:50.063Z,100106.88
2022-09-26T11:52:31.921Z,100095.44
2022-09-26T11:55:21.150Z,100093.41
2022-09-26T11:57:54.189Z,100083.59
2022-09-26T12:00:29.237Z,100082.81
2022-09-26T12:03:17.209Z,100075.66
2022-09-26T12:05:54.544Z,100065.44
2022-09-26T12:08:48.806Z,100069.56
2022-09-26T12:11:34.255Z,100062.41
2022-09-26T12:14:22.713Z,100054.84
2022-09-26T12:17:07.121Z,100055.66
2022-09-26T12:20:01.464Z,100051.19
2022-09-26T12:22:36.455Z,100056.31
2022-09-26T12:25:07.368Z,100053.84
2022-09-26T12:27:51.407Z,100038.53
2022-09-26T12:30:21.994Z,100030.75
2022-09-26T12:33:08.602Z,100034.66
2022-09-26T12:35:56.801Z,100028.53
2022-09-26T12:38:34.880Z,100026.69
2022-09-26T12:41:06.959Z,100028.94
2022-09-26T12:44:01.381Z,100026.50
2022-09-26T12:46:31.133Z,100020.78
2022-09-26T12:49:22.225Z,100018.38
2022-09-26T12:51:52.534Z,100015.28
2022-09-26T12:54:51.379Z,100013.63
2022-09-26T12:57:52.315Z,100019.34
2022-09-26T13:00:22.167Z,100015.47
2022-09-26T13:02:58.085Z,100007.72
2022-09-26T13:06:13.502Z,100008.94
2022-09-26T13:08:53.388Z,100005.03
2022-09-26T13:11:30.297Z,100000.78
2022-09-26T13:14:27.346Z,99988.50
2022-09-26T13:17:13.833Z,99994.84
2022-09-26T13:19:51.554Z,99996.88
2022-09-26T13:22:27.792Z,99989.94
2022-09-26T13:25:08.091Z,99998.72
2022-09-26T13:27:39.398Z,99994.44
2022-09-26T13:30:17.140Z,99996.25
2022-09-26T13:32:57.301Z,99982.19
2022-09-26T13:35:26.151Z,99976.25
2022-09-26T13:38:06.183Z,99973.59
2022-09-26T13:40:52.820Z,99982.19
2022-09-26T13:43:29.148Z,99975.47
2022-09-26T13:46:16.226Z,99977.69
2022-09-26T13:49:27.429Z,99974.25
2022-09-26T13:52:15.861Z,99968.75
2022-09-26T13:54:45.418Z,99964.84
2022-09-26T13:57:35.724Z,99958.31
2022-09-26T14:00:31.221Z,99948.50
2022-09-26T14:03:16.705Z,99952.59
2022-09-26T14:05:52.447Z,99949.75
2022-09-26T14:08:43.750Z,99946.72
2022-09-26T14:11:19.516Z,99938.09
2022-09-26T14:13:47.428Z,99931.97
2022-09-26T14:16:29.366Z,99930.56
2022-09-26T14:19:14.321Z,99933.78
2022-09-26T14:22:01.975Z,99931.78
2022-09-26T14:24:28.669Z,99930.38
2022-09-26T14:27:04.233Z,99932.81
2022-09-26T14:29:35.019Z,99931.78
2022-09-26T14:32:04.523Z,99925.84
2022-09-26T14:35:03.044Z,99922.59
2022-09-26T14:37:39.295Z,99917.91
2022-09-26T14:40:35.427Z,99917.91
2022-09-26T14:43:16.734Z,99912.19
2022-09-26T14:45:49.623Z,99909.31
2022-09-26T14:48:34.089Z,99908.47
2022-09-26T14:51:02.010Z,99892.31
2022-09-26T14:53:41.488Z,99896.97
2022-09-26T14:56:27.333Z,99896.84
2022-09-26T14:58:55.213Z,99894.06
2022-09-26T15:01:29.558Z,99892.94
2022-09-26T15:04:08.591Z,99891.97
2022-09-26T15:06:39.540Z,99890.34
2022-09-26T15:09:25.096Z,99884.03
2022-09-26T15:12:04.925Z,99886.47
2022-09-26T15:14:41.482Z,99880.94
2022-09-26T15:17:17.449Z,99883.22
2022-09-26T15:19:53.080Z,99870.97
2022-09-26T15:22:23.725Z,99874.66
2022-09-26T15:24:54.722Z,99874.84
2022-09-26T15:27:27.314Z,99873.63
2022-09-26T15:29:55.933Z,99867.69
2022-09-26T15:32:28.602Z,99871.19
2022-09-26T15:34:56.290Z,99868.53
2022-09-26T15:37:25.300Z,99858.31
2022-09-26T15:39:52.091Z,99855.25
2022-09-26T15:42:43.222Z,99856.88
2022-09-26T15:45:37.927Z,99855.84
2022-09-26T15:48:06.647Z,99855.84
2022-09-26T15:50:42.978Z,99847.88
2022-09-26T15:53:20.224Z,99854.22
2022-09-26T15:55:49.571Z,99848.13
2022-09-26T15:58:22.831Z,99841.16
2022-09-26T16:00:51.759Z,99835.84
2022-09-26T16:03:27.211Z,99842.19
2022-09-26T16:05:55.002Z,99832.59
2022-09-26T16:08:25.495Z,99841.59
2022-09-26T16:10:57.422Z,99841.78
2022-09-26T16:13:33.235Z,99833.00
2022-09-26T16:16:08.420Z,99834.63
2022-09-26T16:18:47.185Z,99841.78
2022-09-26T16:21:27.795Z,99835.06
2022-09-26T16:23:59.165Z,99837.09
2022-09-26T16:26:31.625Z,99842.00
2022-09-26T16:29:00.332Z,99833.00
2022-09-26T16:31:34.506Z,99835.88
2022-09-26T16:34:02.166Z,99831.19
2022-09-26T16:36:31.775Z,99827.31
2022-09-26T16:39:00.559Z,99823.25
2022-09-26T16:44:36.323Z,99824.69
2022-09-26T16:47:23.138Z,99816.09
2022-09-26T16:49:49.794Z,99823.66
2022-09-26T16:52:27.056Z,99816.09
2022-09-26T16:54:55.350Z,99821.41
2022-09-26T16:57:28.209Z,99815.50
2022-09-26T17:00:18.897Z,99814.47
2022-09-26T17:02:46.015Z,99812.25
2022-09-26T17:05:21.984Z,99815.91
2022-09-26T17:07:51.611Z,99813.25
2022-09-26T17:10:20.175Z,99800.81
2022-09-26T17:12:53.672Z,99800.19
2022-09-26T17:15:26.706Z,99805.28
2022-09-26T17:17:54.189Z,99811.03
2022-09-26T17:20:22.169Z,99814.09
2022-09-26T17:22:49.034Z,99815.72
2022-09-26T17:25:15.762Z,99805.31
2022-09-26T17:27:42.772Z,99804.06
2022-09-26T17:30:18.245Z,99800.44
2022-09-26T17:32:51.032Z,99801.66
2022-09-26T17:35:28.003Z,99803.09
2022-09-26T17:37:55.391Z,99801.44
2022-09-26T17:40:24.690Z,99797.97
2022-09-26T17:42:59.516Z,99803.47
2022-09-26T17:45:31.596Z,99797.97
2022-09-26T17:48:00.693Z,99804.50
2022-09-26T17:50:31.631Z,99807.75
2022-09-26T17:53:00.638Z,99795.94
2022-09-26T17:55:28.826Z,99803.88
2022-09-26T17:57:56.302Z,99795.72
2022-09-26T18:00:23.178Z,99793.72
2022-09-26T18:03:01.612Z,99791.47
2022-09-26T18:05:34.717Z,99785.34
2022-09-26T18:08:06.704Z,99787.97
2022-09-26T18:10:34.597Z,99779.00
2022-09-26T18:13:03.745Z,99781.88
2022-09-26T18:15:30.787Z,99779.63
2022-09-26T18:17:57.919Z,99775.56
2022-09-26T18:20:34.435Z,99781.88
2022-09-26T18:23:01.220Z,99783.50
2022-09-26T18:25:27.977Z,99781.25
2022-09-26T18:27:55.755Z,99774.34
2022-09-26T18:30:23.731Z,99777.59
2022-09-26T18:32:54.065Z,99784.94
2022-09-26T18:35:24.244Z,99775.34
2022-09-26T18:37:55.828Z,99778.00
2022-09-26T18:40:27.957Z,99775.56
2022-09-26T18:42:55.221Z,99769.44
2022-09-26T18:45:29.841Z,99772.72
2022-09-26T18:47:57.221Z,99771.06
2022-09-26T18:50:36.595Z,99779.22
2022-09-26T18:53:04.715Z,99772.28
2022-09-26T18:55:50.335Z,99768.41
2022-09-26T18:58:24.427Z,99764.34
2022-09-26T19:00:57.237Z,99755.97
2022-09-26T19:03:25.260Z,99759.66
2022-09-26T19:05:53.390Z,99762.13
2022-09-26T19:08:28.364Z,99755.97
2022-09-26T19:10:55.713Z,99759.88
2022-09-26T19:13:27.347Z,99765.38
2022-09-26T19:15:54.303Z,99762.13
2022-09-26T19:18:21.235Z,99760.47
2022-09-26T19:20:47.914Z,99766.78
2022-09-26T19:23:14.707Z,99758.44
2022-09-26T19:25:41.463Z,99753.97
2022-09-26T19:28:13.944Z,99760.88
2022-09-26T19:30:40.770Z,99751.09
2022-09-26T19:33:10.435Z,99741.13
2022-09-26T19:35:41.669Z,99746.63
2022-09-26T19:38:19.363Z,99747.44
2022-09-26T19:40:49.057Z,99739.69
2022-09-26T19:43:16.861Z,99742.34
2022-09-26T19:45:44.450Z,99737.25
2022-09-26T19:48:16.401Z,99726.25
2022-09-26T19:50:44.931Z,99733.75
2022-09-26T19:53:16.765Z,99736.22
2022-09-26T19:55:44.068Z,99736.41
2022-09-26T19:58:16.751Z,99732.53
2022-09-26T20:00:44.781Z,99723.41
2022-09-26T20:03:22.885Z,99731.53
2022-09-26T20:05:50.214Z,99724.41
2022-09-26T20:08:27.826Z,99722.13
2022-09-26T20:10:59.258Z,99723.13
2022-09-26T20:13:25.962Z,99718.06
2022-09-26T20:15:52.674Z,99727.00
2022-09-26T20:18:21.958Z,99718.25
2022-09-26T20:20:52.766Z,99723.56
2022-09-26T20:23:22.003Z,99713.97
2022-09-26T20:25:49.193Z,99711.53
2022-09-26T20:28:16.411Z,99709.69
2022-09-26T20:30:52.144Z,99706.84
2022-09-26T20:33:22.077Z,99701.34
2022-09-26T20:36:00.173Z,99704.19
2022-09-26T20:38:33.208Z,99694.63
2022-09-26T20:41:12.098Z,99693.41
2022-09-26T20:43:39.746Z,99688.31
2022-09-26T20:46:09.313Z,99691.78
2022-09-26T20:48:36.651Z,99694.44
2022-09-26T20:51:05.181Z,99689.13
2022-09-26T20:53:32.062Z,99686.88
2022-09-26T20:55:58.812Z,99688.94
2022-09-26T20:58:25.433Z,99683.63
2022-09-26T21:00:53.291Z,99684.44
2022-09-26T21:03:21.958Z,99685.25
2022-09-26T21:05:48.627Z,99677.31
2022-09-26T21:08:31.367Z,99667.94
2022-09-26T21:10:59.302Z,99676.09
2022-09-26T21:13:25.886Z,99667.13
2022-09-26T21:15:53.041Z,99663.44
2022-09-26T21:18:25.111Z,99662.00
2022-09-26T21:20:52.550Z,99662.84
2022-09-26T21:23:20.296Z,99660.59
2022-09-26T21:25:47.437Z,99655.91
2022-09-26T21:28:26.476Z,99654.50
2022-09-26T21:30:58.833Z,99643.47
2022-09-26T21:33:25.604Z,99644.50
2022-09-26T21:35:52.829Z,99643.91
2022-09-26T21:38:20.598Z,99639.41
2022-09-26T21:40:51.924Z,99638.59
2022-09-26T21:43:21.072Z,99634.31
2022-09-26T21:45:47.791Z,99635.13
2022-09-26T21:48:15.412Z,99624.94
2022-09-26T21:50:44.705Z,99630.03
2022-09-26T21:53:20.022Z,99629.00
2022-09-26T21:55:51.173Z,99622.91
2022-09-26T21:58:21.863Z,99623.13
2022-09-26T22:00:48.742Z,99620.88
2022-09-26T22:03:15.361Z,99614.78
2022-09-26T22:05:42.440Z,99610.69
2022-09-26T22:08:09.268Z,99609.47
2022-09-26T22:10:36.878Z,99607.63
2022-09-26T22:13:04.198Z,99598.25
2022-09-26T22:15:30.814Z,99593.97
2022-09-26T22:17:57.552Z,99590.31
2022-09-26T22:20:24.403Z,99583.78
2022-09-26T22:22:51.655Z,99580.94
2022-09-26T22:25:18.364Z,99584.00
2022-09-26T22:27:45.208Z,99572.59
2022-09-26T22:30:12.904Z,99582.56
2022-09-26T22:32:40.063Z,99556.72
2022-09-26T22:35:07.022Z,99562.41
2022-09-26T22:37:33.918Z,99557.31
2022-09-26T22:40:00.641Z,99557.94
2022-09-26T22:42:27.266Z,99551.63
2022-09-26T22:44:53.955Z,99543.47
2022-09-26T22:47:20.642Z,99544.69
2022-09-26T22:49:47.256Z,99536.13
2022-09-26T22:52:13.884Z,99533.09
2022-09-26T22:54:40.514Z,99533.09
2022-09-26T22:57:07.157Z,99531.66
2022-09-26T22:59:33.888Z,99536.75
2022-09-26T23:02:00.602Z,99527.41
2022-09-26T23:04:46.956Z,99525.16
2022-09-26T23:07:15.490Z,99516.00
2022-09-26T23:09:42.206Z,99514.38
2022-09-26T23:12:09.097Z,99518.00
2022-09-26T23:14:35.898Z,99508.44
2022-09-26T23:17:03.110Z,99505.78
2022-09-26T23:19:30.213Z,99496.03
2022-09-26T23:21:58.142Z,99498.88
2022-09-26T23:24:24.955Z,99498.69
2022-09-26T23:26:51.634Z,99489.91
2022-09-26T23:29:18.226Z,99494.41
2022-09-26T23:31:45.065Z,99489.13
2022-09-26T23:34:12.218Z,99490.94
2022-09-26T23:36:38.869Z,99484.22
2022-09-26T23:39:05.794Z,99489.31
2022-09-26T23:41:32.465Z,99487.47
2022-09-26T23:43:59.327Z,99483.38
2022-09-26T23:46:26.069Z,99481.97
2022-09-26T23:48:52.844Z,99475.88
2022-09-26T23:51:19.580Z,99474.03
2022-09-26T23:53:47.838Z,99473.00
2022-09-26T23:56:14.793Z,99471.78
2022-09-26T23:58:41.763Z,99470.75
